sensor_id;sensor_type;location;lat;lon;timestamp;P1;durP1;ratioP1;P2;durP2;ratioP2
28166;SDS011;15455;53.376;-6.262;2023-02-28T00:02:23;2.78;;;1.52;;
28166;SDS011;15455;53.376;-6.262;2023-02-28T00:05:10;3.60;;;1.60;;
28166;SDS011;15455;53.376;-6.262;2023-02-28T00:07:57;10.45;;;1.65;;
28166;SDS011;15455;53.376;-6.262;2023-02-28T00:10:42;11.52;;;1.70;;
28166;SDS011;15455;53.376;-6.262;2023-02-28T00:13:27;2.85;;;1.20;;
28166;SDS011;15455;53.376;-6.262;2023-02-28T00:16:15;6.03;;;0.95;;
28166;SDS011;15455;53.376;-6.262;2023-02-28T00:19:05;4.13;;;1.13;;
28166;SDS011;15455;53.376;-6.262;2023-02-28T00:21:51;5.30;;;1.08;;
28166;SDS011;15455;53.376;-6.262;2023-02-28T00:24:36;4.43;;;0.98;;
28166;SDS011;15455;53.376;-6.262;2023-02-28T00:27:22;3.55;;;0.80;;
28166;SDS011;15455;53.376;-6.262;2023-02-28T00:30:08;5.53;;;0.93;;
28166;SDS011;15455;53.376;-6.262;2023-02-28T00:32:57;2.63;;;0.70;;
28166;SDS011;15455;53.376;-6.262;2023-02-28T00:35:42;5.28;;;1.02;;
28166;SDS011;15455;53.376;-6.262;2023-02-28T00:38:31;4.68;;;1.13;;
28166;SDS011;15455;53.376;-6.262;2023-02-28T00:41:18;3.13;;;0.73;;
28166;SDS011;15455;53.376;-6.262;2023-02-28T00:44:05;4.68;;;0.80;;
28166;SDS011;15455;53.376;-6.262;2023-02-28T00:46:50;3.63;;;0.95;;
28166;SDS011;15455;53.376;-6.262;2023-02-28T00:49:36;1.63;;;0.98;;
28166;SDS011;15455;53.376;-6.262;2023-02-28T00:52:21;10.30;;;1.30;;
28166;SDS011;15455;53.376;-6.262;2023-02-28T00:55:07;11.77;;;1.63;;
28166;SDS011;15455;53.376;-6.262;2023-02-28T00:57:53;2.67;;;0.80;;
28166;SDS011;15455;53.376;-6.262;2023-02-28T01:00:38;5.07;;;1.17;;
28166;SDS011;15455;53.376;-6.262;2023-02-28T01:03:23;8.52;;;1.55;;
28166;SDS011;15455;53.376;-6.262;2023-02-28T01:06:09;9.52;;;1.40;;
28166;SDS011;15455;53.376;-6.262;2023-02-28T01:08:56;8.40;;;1.98;;
28166;SDS011;15455;53.376;-6.262;2023-02-28T01:11:41;9.45;;;1.55;;
28166;SDS011;15455;53.376;-6.262;2023-02-28T01:14:28;3.90;;;1.02;;
28166;SDS011;15455;53.376;-6.262;2023-02-28T01:17:14;1.90;;;1.10;;
28166;SDS011;15455;53.376;-6.262;2023-02-28T01:19:59;6.45;;;1.23;;
28166;SDS011;15455;53.376;-6.262;2023-02-28T01:22:45;6.63;;;0.82;;
28166;SDS011;15455;53.376;-6.262;2023-02-28T01:25:33;8.98;;;1.17;;
28166;SDS011;15455;53.376;-6.262;2023-02-28T01:28:22;3.97;;;1.23;;
28166;SDS011;15455;53.376;-6.262;2023-02-28T01:31:08;6.68;;;1.02;;
28166;SDS011;15455;53.376;-6.262;2023-02-28T01:33:55;2.97;;;1.00;;
28166;SDS011;15455;53.376;-6.262;2023-02-28T01:36:44;3.60;;;0.88;;
28166;SDS011;15455;53.376;-6.262;2023-02-28T01:39:30;5.65;;;0.68;;
28166;SDS011;15455;53.376;-6.262;2023-02-28T01:42:16;2.33;;;0.55;;
28166;SDS011;15455;53.376;-6.262;2023-02-28T01:48:07;3.13;;;0.77;;
28166;SDS011;15455;53.376;-6.262;2023-02-28T01:50:54;3.22;;;0.50;;
28166;SDS011;15455;53.376;-6.262;2023-02-28T01:53:51;3.85;;;0.60;;
28166;SDS011;15455;53.376;-6.262;2023-02-28T01:56:44;2.20;;;0.60;;
28166;SDS011;15455;53.376;-6.262;2023-02-28T01:59:37;1.88;;;0.57;;
28166;SDS011;15455;53.376;-6.262;2023-02-28T02:02:31;7.25;;;1.10;;
28166;SDS011;15455;53.376;-6.262;2023-02-28T02:05:26;2.08;;;0.70;;
28166;SDS011;15455;53.376;-6.262;2023-02-28T02:08:26;2.67;;;0.65;;
28166;SDS011;15455;53.376;-6.262;2023-02-28T02:11:14;2.20;;;0.70;;
28166;SDS011;15455;53.376;-6.262;2023-02-28T02:35:29;5.25;;;0.60;;
28166;SDS011;15455;53.376;-6.262;2023-02-28T02:38:35;3.85;;;0.50;;
28166;SDS011;15455;53.376;-6.262;2023-02-28T02:44:47;4.38;;;0.75;;
28166;SDS011;15455;53.376;-6.262;2023-02-28T02:47:41;3.05;;;0.57;;
28166;SDS011;15455;53.376;-6.262;2023-02-28T02:50:30;2.20;;;0.50;;
28166;SDS011;15455;53.376;-6.262;2023-02-28T02:53:21;1.65;;;0.80;;
28166;SDS011;15455;53.376;-6.262;2023-02-28T02:56:12;1.55;;;0.82;;
28166;SDS011;15455;53.376;-6.262;2023-02-28T02:59:01;1.08;;;0.60;;
28166;SDS011;15455;53.376;-6.262;2023-02-28T03:01:51;4.05;;;1.17;;
28166;SDS011;15455;53.376;-6.262;2023-02-28T03:04:51;0.70;;;0.70;;
28166;SDS011;15455;53.376;-6.262;2023-02-28T03:07:39;6.00;;;0.65;;
28166;SDS011;15455;53.376;-6.262;2023-02-28T03:10:36;2.83;;;1.00;;
28166;SDS011;15455;53.376;-6.262;2023-02-28T03:16:34;3.58;;;0.80;;
28166;SDS011;15455;53.376;-6.262;2023-02-28T03:28:18;6.03;;;1.35;;
28166;SDS011;15455;53.376;-6.262;2023-02-28T03:31:22;7.97;;;2.28;;
28166;SDS011;15455;53.376;-6.262;2023-02-28T03:34:29;7.50;;;2.80;;
28166;SDS011;15455;53.376;-6.262;2023-02-28T03:37:19;7.65;;;2.70;;
28166;SDS011;15455;53.376;-6.262;2023-02-28T03:40:13;10.38;;;2.30;;
28166;SDS011;15455;53.376;-6.262;2023-02-28T03:43:12;6.82;;;1.70;;
28166;SDS011;15455;53.376;-6.262;2023-02-28T03:46:04;6.88;;;1.42;;
28166;SDS011;15455;53.376;-6.262;2023-02-28T03:48:55;5.03;;;1.15;;
28166;SDS011;15455;53.376;-6.262;2023-02-28T03:51:48;6.43;;;0.90;;
28166;SDS011;15455;53.376;-6.262;2023-02-28T03:54:43;10.15;;;0.85;;
28166;SDS011;15455;53.376;-6.262;2023-02-28T04:00:41;5.00;;;0.80;;
28166;SDS011;15455;53.376;-6.262;2023-02-28T04:03:28;1.60;;;0.88;;
28166;SDS011;15455;53.376;-6.262;2023-02-28T04:06:16;3.95;;;0.68;;
28166;SDS011;15455;53.376;-6.262;2023-02-28T04:09:04;4.05;;;0.73;;
28166;SDS011;15455;53.376;-6.262;2023-02-28T04:11:52;6.40;;;1.02;;
28166;SDS011;15455;53.376;-6.262;2023-02-28T04:14:38;2.72;;;0.80;;
28166;SDS011;15455;53.376;-6.262;2023-02-28T04:17:23;2.90;;;0.70;;
28166;SDS011;15455;53.376;-6.262;2023-02-28T04:20:08;4.78;;;0.68;;
28166;SDS011;15455;53.376;-6.262;2023-02-28T04:22:55;10.40;;;0.70;;
28166;SDS011;15455;53.376;-6.262;2023-02-28T04:25:40;4.93;;;0.50;;
28166;SDS011;15455;53.376;-6.262;2023-02-28T04:28:25;2.00;;;0.77;;
28166;SDS011;15455;53.376;-6.262;2023-02-28T04:31:11;3.08;;;0.82;;
28166;SDS011;15455;53.376;-6.262;2023-02-28T04:33:57;4.28;;;0.93;;
28166;SDS011;15455;53.376;-6.262;2023-02-28T04:36:42;1.45;;;0.50;;
28166;SDS011;15455;53.376;-6.262;2023-02-28T04:39:27;1.40;;;0.70;;
28166;SDS011;15455;53.376;-6.262;2023-02-28T04:42:13;2.42;;;0.70;;
28166;SDS011;15455;53.376;-6.262;2023-02-28T04:45:00;3.42;;;0.88;;
28166;SDS011;15455;53.376;-6.262;2023-02-28T04:47:49;7.32;;;1.45;;
28166;SDS011;15455;53.376;-6.262;2023-02-28T04:50:34;3.50;;;0.68;;
28166;SDS011;15455;53.376;-6.262;2023-02-28T04:53:20;2.80;;;0.80;;
28166;SDS011;15455;53.376;-6.262;2023-02-28T04:56:06;2.55;;;0.55;;
28166;SDS011;15455;53.376;-6.262;2023-02-28T04:58:53;7.05;;;1.05;;
28166;SDS011;15455;53.376;-6.262;2023-02-28T05:01:39;7.50;;;0.90;;
28166;SDS011;15455;53.376;-6.262;2023-02-28T05:04:24;5.72;;;0.90;;
28166;SDS011;15455;53.376;-6.262;2023-02-28T05:07:10;1.25;;;1.00;;
28166;SDS011;15455;53.376;-6.262;2023-02-28T05:09:56;8.65;;;0.80;;
28166;SDS011;15455;53.376;-6.262;2023-02-28T05:12:41;5.68;;;0.90;;
28166;SDS011;15455;53.376;-6.262;2023-02-28T05:15:27;3.45;;;0.70;;
28166;SDS011;15455;53.376;-6.262;2023-02-28T05:18:12;6.55;;;1.00;;
28166;SDS011;15455;53.376;-6.262;2023-02-28T05:20:58;6.85;;;0.98;;
28166;SDS011;15455;53.376;-6.262;2023-02-28T05:23:47;7.22;;;0.75;;
28166;SDS011;15455;53.376;-6.262;2023-02-28T05:26:36;5.00;;;0.68;;
28166;SDS011;15455;53.376;-6.262;2023-02-28T05:29:23;1.95;;;0.90;;
28166;SDS011;15455;53.376;-6.262;2023-02-28T05:32:09;1.48;;;0.50;;
28166;SDS011;15455;53.376;-6.262;2023-02-28T05:34:58;2.17;;;0.80;;
28166;SDS011;15455;53.376;-6.262;2023-02-28T05:37:43;4.00;;;0.80;;
28166;SDS011;15455;53.376;-6.262;2023-02-28T05:40:29;4.80;;;1.17;;
28166;SDS011;15455;53.376;-6.262;2023-02-28T05:43:14;0.77;;;0.70;;
28166;SDS011;15455;53.376;-6.262;2023-02-28T05:46:02;0.95;;;0.60;;
28166;SDS011;15455;53.376;-6.262;2023-02-28T05:48:49;5.60;;;0.90;;
28166;SDS011;15455;53.376;-6.262;2023-02-28T05:51:35;1.13;;;0.80;;
28166;SDS011;15455;53.376;-6.262;2023-02-28T05:54:24;3.58;;;0.90;;
28166;SDS011;15455;53.376;-6.262;2023-02-28T05:57:10;0.90;;;0.70;;
28166;SDS011;15455;53.376;-6.262;2023-02-28T06:00:08;4.38;;;1.10;;
28166;SDS011;15455;53.376;-6.262;2023-02-28T06:02:57;5.22;;;0.90;;
28166;SDS011;15455;53.376;-6.262;2023-02-28T06:05:46;1.23;;;0.70;;
28166;SDS011;15455;53.376;-6.262;2023-02-28T06:08:32;0.85;;;0.80;;
28166;SDS011;15455;53.376;-6.262;2023-02-28T06:11:17;1.98;;;0.75;;
28166;SDS011;15455;53.376;-6.262;2023-02-28T06:14:05;2.65;;;1.05;;
28166;SDS011;15455;53.376;-6.262;2023-02-28T06:16:51;1.00;;;0.90;;
28166;SDS011;15455;53.376;-6.262;2023-02-28T06:19:37;2.80;;;1.17;;
28166;SDS011;15455;53.376;-6.262;2023-02-28T06:22:24;0.85;;;0.80;;
28166;SDS011;15455;53.376;-6.262;2023-02-28T06:25:09;1.77;;;0.68;;
28166;SDS011;15455;53.376;-6.262;2023-02-28T06:27:56;6.47;;;0.80;;
28166;SDS011;15455;53.376;-6.262;2023-02-28T06:30:41;4.03;;;1.30;;
28166;SDS011;15455;53.376;-6.262;2023-02-28T06:33:30;3.20;;;1.08;;
28166;SDS011;15455;53.376;-6.262;2023-02-28T06:36:16;2.17;;;0.82;;
28166;SDS011;15455;53.376;-6.262;2023-02-28T06:39:02;5.78;;;1.10;;
28166;SDS011;15455;53.376;-6.262;2023-02-28T06:41:48;10.88;;;1.40;;
28166;SDS011;15455;53.376;-6.262;2023-02-28T06:44:40;2.90;;;0.93;;
28166;SDS011;15455;53.376;-6.262;2023-02-28T06:47:25;5.53;;;1.00;;
28166;SDS011;15455;53.376;-6.262;2023-02-28T06:50:11;4.10;;;1.02;;
28166;SDS011;15455;53.376;-6.262;2023-02-28T06:52:57;1.15;;;0.55;;
28166;SDS011;15455;53.376;-6.262;2023-02-28T06:55:43;3.35;;;0.68;;
28166;SDS011;15455;53.376;-6.262;2023-02-28T06:58:28;4.38;;;0.85;;
28166;SDS011;15455;53.376;-6.262;2023-02-28T07:01:14;5.03;;;0.80;;
28166;SDS011;15455;53.376;-6.262;2023-02-28T07:04:00;4.13;;;0.73;;
28166;SDS011;15455;53.376;-6.262;2023-02-28T07:06:45;2.28;;;0.63;;
28166;SDS011;15455;53.376;-6.262;2023-02-28T07:09:31;0.75;;;0.60;;
28166;SDS011;15455;53.376;-6.262;2023-02-28T07:12:16;4.43;;;0.90;;
28166;SDS011;15455;53.376;-6.262;2023-02-28T07:15:02;2.83;;;0.80;;
28166;SDS011;15455;53.376;-6.262;2023-02-28T07:17:51;11.43;;;0.60;;
28166;SDS011;15455;53.376;-6.262;2023-02-28T07:20:36;0.75;;;0.60;;
28166;SDS011;15455;53.376;-6.262;2023-02-28T07:23:22;2.47;;;0.80;;
28166;SDS011;15455;53.376;-6.262;2023-02-28T07:26:11;3.67;;;0.85;;
28166;SDS011;15455;53.376;-6.262;2023-02-28T07:28:59;1.85;;;0.82;;
28166;SDS011;15455;53.376;-6.262;2023-02-28T07:31:45;7.93;;;0.80;;
28166;SDS011;15455;53.376;-6.262;2023-02-28T07:34:31;3.70;;;1.00;;
28166;SDS011;15455;53.376;-6.262;2023-02-28T07:37:17;5.70;;;0.70;;
28166;SDS011;15455;53.376;-6.262;2023-02-28T07:40:03;0.90;;;0.52;;
28166;SDS011;15455;53.376;-6.262;2023-02-28T07:42:52;1.40;;;0.60;;
28166;SDS011;15455;53.376;-6.262;2023-02-28T07:45:37;5.03;;;0.93;;
28166;SDS011;15455;53.376;-6.262;2023-02-28T07:48:23;2.15;;;0.60;;
28166;SDS011;15455;53.376;-6.262;2023-02-28T07:51:09;4.00;;;0.80;;
28166;SDS011;15455;53.376;-6.262;2023-02-28T07:53:55;4.00;;;0.75;;
28166;SDS011;15455;53.376;-6.262;2023-02-28T07:56:41;5.57;;;0.88;;
28166;SDS011;15455;53.376;-6.262;2023-02-28T07:59:26;4.95;;;1.45;;
28166;SDS011;15455;53.376;-6.262;2023-02-28T08:02:15;1.55;;;0.85;;
28166;SDS011;15455;53.376;-6.262;2023-02-28T08:05:03;1.75;;;0.80;;
28166;SDS011;15455;53.376;-6.262;2023-02-28T08:07:49;4.00;;;0.93;;
28166;SDS011;15455;53.376;-6.262;2023-02-28T08:10:36;0.80;;;0.70;;
28166;SDS011;15455;53.376;-6.262;2023-02-28T08:13:21;6.47;;;0.88;;
28166;SDS011;15455;53.376;-6.262;2023-02-28T08:16:07;1.25;;;0.88;;
28166;SDS011;15455;53.376;-6.262;2023-02-28T08:18:52;2.63;;;0.70;;
28166;SDS011;15455;53.376;-6.262;2023-02-28T08:21:38;3.63;;;0.73;;
28166;SDS011;15455;53.376;-6.262;2023-02-28T08:24:24;4.28;;;0.95;;
28166;SDS011;15455;53.376;-6.262;2023-02-28T08:27:10;3.67;;;0.65;;
28166;SDS011;15455;53.376;-6.262;2023-02-28T08:29:56;1.65;;;0.75;;
28166;SDS011;15455;53.376;-6.262;2023-02-28T08:32:41;3.25;;;0.85;;
28166;SDS011;15455;53.376;-6.262;2023-02-28T08:35:27;3.25;;;0.63;;
28166;SDS011;15455;53.376;-6.262;2023-02-28T08:38:12;1.27;;;0.52;;
28166;SDS011;15455;53.376;-6.262;2023-02-28T08:40:58;2.05;;;0.65;;
28166;SDS011;15455;53.376;-6.262;2023-02-28T08:43:51;5.53;;;0.82;;
28166;SDS011;15455;53.376;-6.262;2023-02-28T08:46:37;1.98;;;0.70;;
28166;SDS011;15455;53.376;-6.262;2023-02-28T08:49:23;2.15;;;0.63;;
28166;SDS011;15455;53.376;-6.262;2023-02-28T08:52:08;0.60;;;0.50;;
28166;SDS011;15455;53.376;-6.262;2023-02-28T08:54:54;2.22;;;0.77;;
28166;SDS011;15455;53.376;-6.262;2023-02-28T08:57:40;2.08;;;0.40;;
28166;SDS011;15455;53.376;-6.262;2023-02-28T09:00:25;2.15;;;0.80;;
28166;SDS011;15455;53.376;-6.262;2023-02-28T09:03:10;1.85;;;0.57;;
28166;SDS011;15455;53.376;-6.262;2023-02-28T09:05:56;0.93;;;0.50;;
28166;SDS011;15455;53.376;-6.262;2023-02-28T09:08:44;2.25;;;0.60;;
28166;SDS011;15455;53.376;-6.262;2023-02-28T09:11:30;1.35;;;0.50;;
28166;SDS011;15455;53.376;-6.262;2023-02-28T09:14:15;2.58;;;0.50;;
28166;SDS011;15455;53.376;-6.262;2023-02-28T09:17:02;1.83;;;0.70;;
28166;SDS011;15455;53.376;-6.262;2023-02-28T09:19:48;1.77;;;0.47;;
28166;SDS011;15455;53.376;-6.262;2023-02-28T09:22:34;0.75;;;0.60;;
28166;SDS011;15455;53.376;-6.262;2023-02-28T09:25:20;3.97;;;0.60;;
28166;SDS011;15455;53.376;-6.262;2023-02-28T09:28:05;2.65;;;0.40;;
28166;SDS011;15455;53.376;-6.262;2023-02-28T09:30:51;6.93;;;0.63;;
28166;SDS011;15455;53.376;-6.262;2023-02-28T09:33:38;0.60;;;0.50;;
28166;SDS011;15455;53.376;-6.262;2023-02-28T09:36:25;1.08;;;0.70;;
28166;SDS011;15455;53.376;-6.262;2023-02-28T09:39:27;4.13;;;1.00;;
28166;SDS011;15455;53.376;-6.262;2023-02-28T09:42:18;8.70;;;1.83;;
28166;SDS011;15455;53.376;-6.262;2023-02-28T09:45:13;1.17;;;0.60;;
28166;SDS011;15455;53.376;-6.262;2023-02-28T09:48:25;6.28;;;0.52;;
28166;SDS011;15455;53.376;-6.262;2023-02-28T09:54:20;5.95;;;1.92;;
28166;SDS011;15455;53.376;-6.262;2023-02-28T10:00:22;2.92;;;0.40;;
28166;SDS011;15455;53.376;-6.262;2023-02-28T10:06:33;1.85;;;0.43;;
28166;SDS011;15455;53.376;-6.262;2023-02-28T10:09:29;1.05;;;0.32;;
28166;SDS011;15455;53.376;-6.262;2023-02-28T10:12:17;0.70;;;0.45;;
28166;SDS011;15455;53.376;-6.262;2023-02-28T10:15:05;0.88;;;0.32;;
28166;SDS011;15455;53.376;-6.262;2023-02-28T10:17:51;1.90;;;0.70;;
28166;SDS011;15455;53.376;-6.262;2023-02-28T10:20:53;1.58;;;0.60;;
28166;SDS011;15455;53.376;-6.262;2023-02-28T10:23:40;1.85;;;0.50;;
28166;SDS011;15455;53.376;-6.262;2023-02-28T10:26:27;0.75;;;0.65;;
28166;SDS011;15455;53.376;-6.262;2023-02-28T10:29:15;4.70;;;0.57;;
28166;SDS011;15455;53.376;-6.262;2023-02-28T10:32:01;0.20;;;0.20;;
28166;SDS011;15455;53.376;-6.262;2023-02-28T10:34:52;3.05;;;0.50;;
28166;SDS011;15455;53.376;-6.262;2023-02-28T10:37:43;5.10;;;0.50;;
28166;SDS011;15455;53.376;-6.262;2023-02-28T10:40:33;2.65;;;0.45;;
28166;SDS011;15455;53.376;-6.262;2023-02-28T10:43:21;3.30;;;0.50;;
28166;SDS011;15455;53.376;-6.262;2023-02-28T10:49:05;0.98;;;0.28;;
28166;SDS011;15455;53.376;-6.262;2023-02-28T10:51:58;0.63;;;0.28;;
28166;SDS011;15455;53.376;-6.262;2023-02-28T10:54:45;0.28;;;0.28;;
28166;SDS011;15455;53.376;-6.262;2023-02-28T10:57:31;1.90;;;0.30;;
28166;SDS011;15455;53.376;-6.262;2023-02-28T11:00:21;0.28;;;0.20;;
28166;SDS011;15455;53.376;-6.262;2023-02-28T11:03:22;0.28;;;0.28;;
28166;SDS011;15455;53.376;-6.262;2023-02-28T11:06:20;3.13;;;0.40;;
28166;SDS011;15455;53.376;-6.262;2023-02-28T11:09:18;0.43;;;0.30;;
28166;SDS011;15455;53.376;-6.262;2023-02-28T11:12:27;0.63;;;0.30;;
28166;SDS011;15455;53.376;-6.262;2023-02-28T11:15:26;1.90;;;0.85;;
28166;SDS011;15455;53.376;-6.262;2023-02-28T11:18:21;1.10;;;0.40;;
28166;SDS011;15455;53.376;-6.262;2023-02-28T11:21:15;2.78;;;0.70;;
28166;SDS011;15455;53.376;-6.262;2023-02-28T11:24:12;0.82;;;0.38;;
28166;SDS011;15455;53.376;-6.262;2023-02-28T11:30:26;0.32;;;0.32;;
28166;SDS011;15455;53.376;-6.262;2023-02-28T11:36:13;0.90;;;0.30;;
28166;SDS011;15455;53.376;-6.262;2023-02-28T11:39:00;3.08;;;0.50;;
28166;SDS011;15455;53.376;-6.262;2023-02-28T12:12:32;1.10;;;0.43;;
28166;SDS011;15455;53.376;-6.262;2023-02-28T12:22:06;2.25;;;0.70;;
28166;SDS011;15455;53.376;-6.262;2023-02-28T12:28:13;2.67;;;0.73;;
28166;SDS011;15455;53.376;-6.262;2023-02-28T12:31:14;0.80;;;0.60;;
28166;SDS011;15455;53.376;-6.262;2023-02-28T12:34:25;0.90;;;0.40;;
28166;SDS011;15455;53.376;-6.262;2023-02-28T12:37:22;1.60;;;0.73;;
28166;SDS011;15455;53.376;-6.262;2023-02-28T12:40:25;1.50;;;0.57;;
28166;SDS011;15455;53.376;-6.262;2023-02-28T12:43:14;2.38;;;1.17;;
28166;SDS011;15455;53.376;-6.262;2023-02-28T12:49:17;1.40;;;0.43;;
28166;SDS011;15455;53.376;-6.262;2023-02-28T12:52:08;1.90;;;0.40;;
28166;SDS011;15455;53.376;-6.262;2023-02-28T12:55:11;2.63;;;0.60;;
28166;SDS011;15455;53.376;-6.262;2023-02-28T12:58:15;0.80;;;0.50;;
28166;SDS011;15455;53.376;-6.262;2023-02-28T13:10:04;2.13;;;0.57;;
28166;SDS011;15455;53.376;-6.262;2023-02-28T13:12:53;6.53;;;0.60;;
28166;SDS011;15455;53.376;-6.262;2023-02-28T13:15:39;1.65;;;0.90;;
28166;SDS011;15455;53.376;-6.262;2023-02-28T13:18:31;3.33;;;0.77;;
28166;SDS011;15455;53.376;-6.262;2023-02-28T13:21:22;1.77;;;0.77;;
28166;SDS011;15455;53.376;-6.262;2023-02-28T13:24:11;4.45;;;1.75;;
28166;SDS011;15455;53.376;-6.262;2023-02-28T13:36:27;1.75;;;1.00;;
28166;SDS011;15455;53.376;-6.262;2023-02-28T13:45:30;4.25;;;1.05;;
28166;SDS011;15455;53.376;-6.262;2023-02-28T13:48:22;6.38;;;1.10;;
28166;SDS011;15455;53.376;-6.262;2023-02-28T14:06:30;4.10;;;0.77;;
28166;SDS011;15455;53.376;-6.262;2023-02-28T14:09:29;2.28;;;1.10;;
28166;SDS011;15455;53.376;-6.262;2023-02-28T14:12:51;3.50;;;1.17;;
28166;SDS011;15455;53.376;-6.262;2023-02-28T14:15:44;5.50;;;1.10;;
28166;SDS011;15455;53.376;-6.262;2023-02-28T14:18:51;2.58;;;0.80;;
28166;SDS011;15455;53.376;-6.262;2023-02-28T14:21:49;4.47;;;1.10;;
28166;SDS011;15455;53.376;-6.262;2023-02-28T14:31:20;6.78;;;1.80;;
28166;SDS011;15455;53.376;-6.262;2023-02-28T14:37:15;6.40;;;2.13;;
28166;SDS011;15455;53.376;-6.262;2023-02-28T14:40:28;11.70;;;2.28;;
28166;SDS011;15455;53.376;-6.262;2023-02-28T14:43:21;2.40;;;1.38;;
28166;SDS011;15455;53.376;-6.262;2023-02-28T14:46:08;4.35;;;1.25;;
28166;SDS011;15455;53.376;-6.262;2023-02-28T14:48:58;5.05;;;0.95;;
28166;SDS011;15455;53.376;-6.262;2023-02-28T14:51:44;4.00;;;0.60;;
28166;SDS011;15455;53.376;-6.262;2023-02-28T14:54:32;2.85;;;1.02;;
28166;SDS011;15455;53.376;-6.262;2023-02-28T14:57:23;6.90;;;1.30;;
28166;SDS011;15455;53.376;-6.262;2023-02-28T15:00:15;9.48;;;1.40;;
28166;SDS011;15455;53.376;-6.262;2023-02-28T15:03:19;2.38;;;1.15;;
28166;SDS011;15455;53.376;-6.262;2023-02-28T15:06:11;4.75;;;1.17;;
28166;SDS011;15455;53.376;-6.262;2023-02-28T15:09:09;3.50;;;1.33;;
28166;SDS011;15455;53.376;-6.262;2023-02-28T15:11:59;2.67;;;1.88;;
28166;SDS011;15455;53.376;-6.262;2023-02-28T15:14:45;4.43;;;1.48;;
28166;SDS011;15455;53.376;-6.262;2023-02-28T15:17:36;4.80;;;1.60;;
28166;SDS011;15455;53.376;-6.262;2023-02-28T15:20:21;4.38;;;1.15;;
28166;SDS011;15455;53.376;-6.262;2023-02-28T15:23:10;1.52;;;1.10;;
28166;SDS011;15455;53.376;-6.262;2023-02-28T15:25:56;4.35;;;0.98;;
28166;SDS011;15455;53.376;-6.262;2023-02-28T15:28:43;4.38;;;0.95;;
28166;SDS011;15455;53.376;-6.262;2023-02-28T15:31:31;9.23;;;0.88;;
28166;SDS011;15455;53.376;-6.262;2023-02-28T15:34:42;2.07;;;0.90;;
28166;SDS011;15455;53.376;-6.262;2023-02-28T15:40:28;3.38;;;1.05;;
28166;SDS011;15455;53.376;-6.262;2023-02-28T15:43:16;1.98;;;1.10;;
28166;SDS011;15455;53.376;-6.262;2023-02-28T15:48:55;2.58;;;1.33;;
28166;SDS011;15455;53.376;-6.262;2023-02-28T15:51:41;2.97;;;1.25;;
28166;SDS011;15455;53.376;-6.262;2023-02-28T15:54:29;3.58;;;1.30;;
28166;SDS011;15455;53.376;-6.262;2023-02-28T15:57:22;2.17;;;1.17;;
28166;SDS011;15455;53.376;-6.262;2023-02-28T16:00:12;2.80;;;1.23;;
28166;SDS011;15455;53.376;-6.262;2023-02-28T16:02:59;4.28;;;1.70;;
28166;SDS011;15455;53.376;-6.262;2023-02-28T16:05:45;7.13;;;1.90;;
28166;SDS011;15455;53.376;-6.262;2023-02-28T16:08:31;7.28;;;1.55;;
28166;SDS011;15455;53.376;-6.262;2023-02-28T16:11:16;3.00;;;1.05;;
28166;SDS011;15455;53.376;-6.262;2023-02-28T16:14:02;1.73;;;1.38;;
28166;SDS011;15455;53.376;-6.262;2023-02-28T16:16:52;5.88;;;1.25;;
28166;SDS011;15455;53.376;-6.262;2023-02-28T16:19:39;5.47;;;1.58;;
28166;SDS011;15455;53.376;-6.262;2023-02-28T16:22:25;9.23;;;1.55;;
28166;SDS011;15455;53.376;-6.262;2023-02-28T16:25:15;4.05;;;2.28;;
28166;SDS011;15455;53.376;-6.262;2023-02-28T16:28:07;7.80;;;1.92;;
28166;SDS011;15455;53.376;-6.262;2023-02-28T16:31:06;3.28;;;1.70;;
28166;SDS011;15455;53.376;-6.262;2023-02-28T16:33:52;8.20;;;2.20;;
28166;SDS011;15455;53.376;-6.262;2023-02-28T16:36:38;1.88;;;1.33;;
28166;SDS011;15455;53.376;-6.262;2023-02-28T16:39:24;4.00;;;1.55;;
28166;SDS011;15455;53.376;-6.262;2023-02-28T16:42:20;2.33;;;1.52;;
28166;SDS011;15455;53.376;-6.262;2023-02-28T16:45:17;5.28;;;1.35;;
28166;SDS011;15455;53.376;-6.262;2023-02-28T16:48:07;3.63;;;1.38;;
28166;SDS011;15455;53.376;-6.262;2023-02-28T16:50:56;4.75;;;1.83;;
28166;SDS011;15455;53.376;-6.262;2023-02-28T16:53:42;6.75;;;2.17;;
28166;SDS011;15455;53.376;-6.262;2023-02-28T16:56:29;5.95;;;1.90;;
28166;SDS011;15455;53.376;-6.262;2023-02-28T16:59:15;1.70;;;1.50;;
28166;SDS011;15455;53.376;-6.262;2023-02-28T17:05:02;6.32;;;2.70;;
28166;SDS011;15455;53.376;-6.262;2023-02-28T17:07:48;10.70;;;1.92;;
28166;SDS011;15455;53.376;-6.262;2023-02-28T17:10:34;7.00;;;2.45;;
28166;SDS011;15455;53.376;-6.262;2023-02-28T17:13:20;3.03;;;1.77;;
28166;SDS011;15455;53.376;-6.262;2023-02-28T17:16:05;3.25;;;1.80;;
28166;SDS011;15455;53.376;-6.262;2023-02-28T17:19:00;7.35;;;2.08;;
28166;SDS011;15455;53.376;-6.262;2023-02-28T17:21:47;3.60;;;1.58;;
28166;SDS011;15455;53.376;-6.262;2023-02-28T17:24:33;3.10;;;1.88;;
28166;SDS011;15455;53.376;-6.262;2023-02-28T17:27:18;7.40;;;2.33;;
28166;SDS011;15455;53.376;-6.262;2023-02-28T17:30:26;3.35;;;1.67;;
28166;SDS011;15455;53.376;-6.262;2023-02-28T17:33:14;4.65;;;1.63;;
28166;SDS011;15455;53.376;-6.262;2023-02-28T17:36:00;3.30;;;1.58;;
28166;SDS011;15455;53.376;-6.262;2023-02-28T17:38:46;3.92;;;1.80;;
28166;SDS011;15455;53.376;-6.262;2023-02-28T17:41:32;3.70;;;1.80;;
28166;SDS011;15455;53.376;-6.262;2023-02-28T17:44:18;9.30;;;2.35;;
28166;SDS011;15455;53.376;-6.262;2023-02-28T17:47:04;2.90;;;2.03;;
28166;SDS011;15455;53.376;-6.262;2023-02-28T17:49:49;8.63;;;2.45;;
28166;SDS011;15455;53.376;-6.262;2023-02-28T17:52:35;8.07;;;2.22;;
28166;SDS011;15455;53.376;-6.262;2023-02-28T17:55:22;4.85;;;1.83;;
28166;SDS011;15455;53.376;-6.262;2023-02-28T17:58:08;7.80;;;2.03;;
28166;SDS011;15455;53.376;-6.262;2023-02-28T18:00:55;9.40;;;2.42;;
28166;SDS011;15455;53.376;-6.262;2023-02-28T18:03:41;4.38;;;1.90;;
28166;SDS011;15455;53.376;-6.262;2023-02-28T18:09:17;8.25;;;3.22;;
28166;SDS011;15455;53.376;-6.262;2023-02-28T18:12:07;13.88;;;5.32;;
28166;SDS011;15455;53.376;-6.262;2023-02-28T18:14:53;13.63;;;6.43;;
28166;SDS011;15455;53.376;-6.262;2023-02-28T18:17:39;17.70;;;7.90;;
28166;SDS011;15455;53.376;-6.262;2023-02-28T18:20:24;5.90;;;2.80;;
28166;SDS011;15455;53.376;-6.262;2023-02-28T18:23:10;2.90;;;2.05;;
28166;SDS011;15455;53.376;-6.262;2023-02-28T18:25:56;7.53;;;3.55;;
28166;SDS011;15455;53.376;-6.262;2023-02-28T18:28:42;12.20;;;5.97;;
28166;SDS011;15455;53.376;-6.262;2023-02-28T18:31:28;26.95;;;11.93;;
28166;SDS011;15455;53.376;-6.262;2023-02-28T18:34:16;22.33;;;10.57;;
28166;SDS011;15455;53.376;-6.262;2023-02-28T18:37:02;21.23;;;7.70;;
28166;SDS011;15455;53.376;-6.262;2023-02-28T18:39:48;12.20;;;5.35;;
28166;SDS011;15455;53.376;-6.262;2023-02-28T18:42:33;18.30;;;6.65;;
28166;SDS011;15455;53.376;-6.262;2023-02-28T18:45:19;10.35;;;5.47;;
28166;SDS011;15455;53.376;-6.262;2023-02-28T18:48:05;15.88;;;6.80;;
28166;SDS011;15455;53.376;-6.262;2023-02-28T18:50:51;13.73;;;4.55;;
28166;SDS011;15455;53.376;-6.262;2023-02-28T18:53:37;9.75;;;3.75;;
28166;SDS011;15455;53.376;-6.262;2023-02-28T18:56:24;4.05;;;2.33;;
28166;SDS011;15455;53.376;-6.262;2023-02-28T18:59:10;4.10;;;2.85;;
28166;SDS011;15455;53.376;-6.262;2023-02-28T19:01:56;9.63;;;3.72;;
28166;SDS011;15455;53.376;-6.262;2023-02-28T19:04:42;5.00;;;1.90;;
28166;SDS011;15455;53.376;-6.262;2023-02-28T19:07:28;2.50;;;2.03;;
28166;SDS011;15455;53.376;-6.262;2023-02-28T19:10:13;4.70;;;1.80;;
28166;SDS011;15455;53.376;-6.262;2023-02-28T19:12:59;2.53;;;1.70;;
28166;SDS011;15455;53.376;-6.262;2023-02-28T19:15:45;6.00;;;2.35;;
28166;SDS011;15455;53.376;-6.262;2023-02-28T19:18:31;7.75;;;2.30;;
28166;SDS011;15455;53.376;-6.262;2023-02-28T19:21:19;2.20;;;1.42;;
28166;SDS011;15455;53.376;-6.262;2023-02-28T19:24:06;4.65;;;2.00;;
28166;SDS011;15455;53.376;-6.262;2023-02-28T19:26:52;7.72;;;2.60;;
28166;SDS011;15455;53.376;-6.262;2023-02-28T19:29:37;4.32;;;1.83;;